Time;durP1;ratioP1;P1;durP2;ratioP2;P2;SDS_P1;SDS_P2;PMS_P1;PMS_P2;Temp;Humidity;BMP_temperature;BMP_pressure;BME280_temperature;BME280_humidity;BME280_pressure;Samples;Min_cycle;Max_cycle;Signal;HPM_P1;HPM_P2
2022/06/12 00:00:47;;;;;;;;;2.00;2.00;;;;;20.28;44.59;101675.19;5053612;28;45617;-78
2022/06/12 00:03:14;;;;;;;;;3.00;1.00;;;;;20.28;44.44;101678.69;5053288;28;45934;-79
2022/06/12 00:09:02;;;;;;;;;5.00;2.25;;;;;20.23;44.44;101693.41;5052860;28;45808;-79
2022/06/12 00:11:28;;;;;;;;;3.50;1.25;;;;;20.17;44.46;101686.00;5053493;28;45751;-77
2022/06/12 00:13:58;;;;;;;;;3.00;2.00;;;;;20.11;45.08;101680.28;5052996;28;45655;-79
2022/06/12 00:16:24;;;;;;;;;2.00;1.75;;;;;20.11;44.47;101680.28;5053306;28;46584;-79
2022/06/12 00:18:50;;;;;;;;;1.50;0.50;;;;;20.05;45.00;101678.19;5053342;28;45816;-80
2022/06/12 00:21:16;;;;;;;;;1.50;1.25;;;;;19.97;45.24;101670.09;5053204;28;46143;-80
2022/06/12 00:23:46;;;;;;;;;1.00;1.00;;;;;20.01;45.15;101681.28;5053683;28;47307;-79
2022/06/12 00:26:14;;;;;;;;;1.75;1.00;;;;;19.91;45.21;101664.53;5055668;28;45835;-79
2022/06/12 00:28:40;;;;;;;;;1.75;1.00;;;;;19.93;45.16;101679.34;5055077;28;45685;-79
2022/06/12 00:31:06;;;;;;;;;1.75;1.50;;;;;19.88;45.73;101672.78;5055459;28;45617;-78
2022/06/12 00:33:32;;;;;;;;;1.00;1.00;;;;;19.81;45.89;101674.34;5054811;28;45789;-79
2022/06/12 00:39:20;;;;;;;;;0.75;0.25;;;;;19.72;46.06;101686.66;5062413;28;45851;-78
2022/06/12 00:41:50;;;;;;;;;3.25;1.00;;;;;19.65;46.47;101672.25;5044660;28;45463;-78
2022/06/12 00:44:20;;;;;;;;;2.00;1.00;;;;;19.66;46.16;101679.25;5061613;28;45731;-79
2022/06/12 00:46:51;;;;;;;;;3.25;2.00;;;;;19.69;47.05;101689.63;5034735;28;47146;-79
2022/06/12 00:49:24;;;;;;;;;1.50;1.00;;;;;19.66;46.77;101693.38;5052435;28;45696;-78
2022/06/12 00:51:55;;;;;;;;;2.25;1.25;;;;;19.62;46.82;101688.50;5038067;28;45808;-79
2022/06/12 00:54:21;;;;;;;;;2.25;1.75;;;;;19.53;47.00;101676.06;5056206;28;45637;-79
2022/06/12 00:56:51;;;;;;;;;1.00;1.00;;;;;19.55;47.26;101682.03;5042147;28;48302;-78
2022/06/12 00:59:23;;;;;;;;;1.75;1.00;;;;;19.49;47.21;101675.47;5063634;28;45566;-79
2022/06/12 01:01:51;;;;;;;;;1.00;1.00;;;;;19.43;47.73;101678.69;5063428;28;45752;-79
2022/06/12 01:07:07;;;;;;;;;2.50;1.00;;;;;19.40;47.74;101678.09;5062935;28;45650;-78
2022/06/12 01:09:38;;;;;;;;;4.00;1.00;;;;;19.34;47.46;101676.00;5063322;28;45732;-78
2022/06/12 01:12:08;;;;;;;;;2.00;1.00;;;;;19.24;47.77;101670.69;5063438;28;45616;-78
2022/06/12 01:14:42;;;;;;;;;1.75;1.00;;;;;19.29;47.87;101690.56;5063107;28;46392;-77
2022/06/12 01:17:10;;;;;;;;;1.50;1.00;;;;;19.22;48.36;101677.94;5062803;28;45913;-79
2022/06/12 01:19:47;;;;;;;;;0.00;0.00;;;;;19.24;47.83;101684.81;5062463;28;45840;-79
2022/06/12 01:22:34;;;;;;;;;1.50;1.00;;;;;19.20;48.12;101679.94;5061428;28;45794;-78
2022/06/12 01:25:23;;;;;;;;;2.00;1.00;;;;;19.18;48.31;101688.03;5060531;28;45614;-78
2022/06/12 01:28:33;;;;;;;;;1.00;1.00;;;;;19.15;48.56;101692.78;5063131;28;46207;-78
2022/06/12 01:31:18;;;;;;;;;1.50;1.00;;;;;19.10;48.94;101690.53;5061669;28;45631;-77
2022/06/12 01:33:58;;;;;;;;;2.00;1.00;;;;;19.06;48.53;101688.28;5062823;28;45685;-78
2022/06/12 01:36:43;;;;;;;;;1.00;1.00;;;;;19.02;48.43;101687.72;5062647;28;45713;-78
2022/06/12 01:39:53;;;;;;;;;1.00;1.00;;;;;18.99;49.26;101682.69;5062360;28;46160;-78
2022/06/12 01:42:56;;;;;;;;;4.00;1.75;;;;;18.93;48.87;101683.25;5000182;28;45877;-77
2022/06/12 01:45:31;;;;;;;;;1.25;1.00;;;;;18.93;49.30;101690.38;4999159;28;45658;-79
2022/06/12 01:48:04;;;;;;;;;1.75;1.25;;;;;18.89;48.90;101695.13;4998543;28;46737;-79
2022/06/12 01:54:13;;;;;;;;;2.00;1.00;;;;;18.82;48.79;101692.16;4993078;28;45918;-77
2022/06/12 01:56:48;;;;;;;;;2.25;1.00;;;;;18.78;48.69;101696.06;4993400;28;45713;-79
2022/06/12 01:59:22;;;;;;;;;2.00;1.00;;;;;18.75;48.93;101698.13;4993354;28;45894;-79
2022/06/12 02:02:10;;;;;;;;;1.00;1.00;;;;;18.65;48.49;101700.75;4992888;28;46656;-79
2022/06/12 02:04:46;;;;;;;;;2.25;1.00;;;;;18.66;49.04;101701.59;4992890;28;45658;-79
2022/06/12 02:07:25;;;;;;;;;2.00;1.75;;;;;18.58;48.53;101689.00;4993037;28;45797;-79
2022/06/12 02:10:09;;;;;;;;;1.25;1.00;;;;;18.56;48.99;101690.13;4985253;28;45779;-79
2022/06/12 02:16:03;;;;;;;;;2.00;2.00;;;;;18.48;49.31;101697.84;4992459;28;45851;-79
2022/06/12 02:18:28;;;;;;;;;2.25;1.00;;;;;18.43;49.21;101699.09;5009528;28;45985;-78
2022/06/12 02:20:58;;;;;;;;;2.00;0.50;;;;;18.35;49.24;101687.50;5037604;28;47875;-78
2022/06/12 02:23:57;;;;;;;;;2.75;1.00;;;;;18.29;49.61;101683.53;5059488;28;46272;-78
2022/06/12 02:26:29;;;;;;;;;2.00;1.00;;;;;18.36;49.51;101707.72;5055009;28;45821;-78
2022/06/12 02:29:00;;;;;;;;;1.75;1.50;;;;;18.28;49.61;101697.78;5058255;28;45645;-78
2022/06/12 02:31:36;;;;;;;;;2.00;2.00;;;;;18.27;49.77;101696.09;5056154;28;46544;-76
2022/06/12 02:34:06;;;;;;;;;3.00;2.00;;;;;18.24;49.54;101709.63;5032714;28;46973;-77
2022/06/12 02:36:41;;;;;;;;;2.00;2.00;;;;;18.22;49.72;101700.97;5052719;28;45583;-78
2022/06/12 02:39:16;;;;;;;;;0.75;0.50;;;;;18.18;50.13;101707.50;5054902;28;45538;-78
2022/06/12 02:41:50;;;;;;;;;2.50;1.00;;;;;18.17;49.83;101704.97;5054324;28;45639;-79
2022/06/12 02:44:25;;;;;;;;;3.00;2.00;;;;;18.17;50.06;101710.28;5054378;28;45991;-78
2022/06/12 02:47:08;;;;;;;;;2.00;1.50;;;;;18.12;49.75;101702.72;5054678;28;45720;-80
2022/06/12 02:53:16;;;;;;;;;2.75;1.00;;;;;18.04;50.48;101710.47;5053904;28;45671;-78
2022/06/12 02:56:17;;;;;;;;;1.50;1.00;;;;;18.00;50.04;101707.25;5054487;28;45909;-79
2022/06/12 02:59:24;;;;;;;;;1.00;0.50;;;;;17.91;50.59;101699.25;5054187;28;45583;-78
2022/06/12 03:01:58;;;;;;;;;3.50;1.50;;;;;17.93;50.47;101697.28;5054162;28;45828;-78
2022/06/12 03:04:34;;;;;;;;;4.00;2.00;;;;;17.91;50.64;101699.25;5053614;28;46388;-78
2022/06/12 03:10:27;;;;;;;;;1.50;1.25;;;;;17.89;51.23;101691.41;5053786;28;45682;-79
2022/06/12 03:12:53;;;;;;;;;2.00;1.25;;;;;17.90;50.99;101695.75;5054015;28;45583;-79
2022/06/12 03:15:45;;;;;;;;;4.00;1.00;;;;;17.92;50.87;101693.78;5053812;28;46468;-78
2022/06/12 03:18:15;;;;;;;;;1.25;1.25;;;;;17.91;50.97;101700.09;5053914;28;46125;-80
2022/06/12 03:21:05;;;;;;;;;2.00;1.25;;;;;17.89;51.37;101690.56;5053862;28;45736;-79
2022/06/12 03:23:36;;;;;;;;;3.00;2.25;;;;;17.94;50.94;101698.97;5053967;28;45730;-78
2022/06/12 03:26:07;;;;;;;;;1.00;1.00;;;;;17.92;50.97;101701.75;5053918;28;46590;-78
2022/06/12 03:28:45;;;;;;;;;3.00;2.00;;;;;17.86;50.78;101701.44;5053501;28;45620;-78
2022/06/12 03:31:15;;;;;;;;;1.50;1.25;;;;;17.88;50.52;101697.66;5053662;28;45626;-78
2022/06/12 03:33:51;;;;;;;;;1.50;1.00;;;;;17.80;50.88;101689.53;5035558;28;45559;-78
2022/06/12 03:36:22;;;;;;;;;1.50;1.00;;;;;17.82;50.87;101703.50;5053736;28;45740;-79
2022/06/12 03:38:53;;;;;;;;;4.75;2.00;;;;;17.80;50.86;101691.34;5053880;28;46428;-78
2022/06/12 03:41:27;;;;;;;;;2.00;2.00;;;;;17.80;50.73;101697.50;5053555;28;45804;-78
2022/06/12 03:43:55;;;;;;;;;3.00;1.00;;;;;17.77;50.84;101696.88;5053517;28;45511;-78
2022/06/12 03:46:49;;;;;;;;;1.75;1.00;;;;;17.76;51.03;101693.41;5053491;28;45702;-78
2022/06/12 03:49:29;;;;;;;;;4.50;2.00;;;;;17.75;51.21;101690.91;5053672;28;46314;-78
2022/06/12 03:52:12;;;;;;;;;2.00;1.00;;;;;17.73;51.20;101692.81;5053689;28;45600;-77
2022/06/12 03:55:05;;;;;;;;;2.25;2.00;;;;;17.71;51.12;101686.78;5053844;28;45668;-79
2022/06/12 03:57:51;;;;;;;;;2.50;1.00;;;;;17.69;51.13;101692.25;5035169;28;46824;-78
2022/06/12 04:00:31;;;;;;;;;3.00;2.00;;;;;17.74;50.78;101699.81;5053482;28;45792;-78
2022/06/12 04:03:03;;;;;;;;;2.00;1.00;;;;;17.72;50.60;101696.44;5053366;28;45728;-78
2022/06/12 04:08:54;;;;;;;;;1.50;1.50;;;;;17.69;50.75;101686.09;5052886;28;45598;-78
2022/06/12 04:11:22;;;;;;;;;1.00;1.00;;;;;17.69;50.90;101689.59;5053038;28;45882;-78
2022/06/12 04:13:49;;;;;;;;;1.00;1.00;;;;;17.63;51.34;101676.00;5058080;28;45584;-78
2022/06/12 04:16:36;;;;;;;;;1.00;1.00;;;;;17.71;51.62;101686.78;5060146;28;45558;-78
2022/06/12 04:19:07;;;;;;;;;2.50;1.25;;;;;17.70;51.78;101682.50;5059737;28;46903;-78
2022/06/12 04:25:01;;;;;;;;;3.00;2.00;;;;;17.67;51.28;101674.78;5059459;28;45745;-79
2022/06/12 04:27:33;;;;;;;;;5.00;2.00;;;;;17.69;51.37;101689.59;5059747;28;45990;-78
2022/06/12 04:30:02;;;;;;;;;2.00;2.00;;;;;17.70;51.33;101693.09;5059486;28;45575;-78
2022/06/12 04:32:30;;;;;;;;;2.50;2.00;;;;;17.70;51.53;101693.94;5059467;28;45646;-78
2022/06/12 04:34:56;;;;;;;;;1.50;1.50;;;;;17.70;51.60;101695.75;5059891;28;45500;-78
2022/06/12 04:40:44;;;;;;;;;2.25;1.25;;;;;17.71;51.52;101700.88;5059194;28;45711;-77
2022/06/12 04:43:09;;;;;;;;;1.00;1.00;;;;;17.70;51.19;101696.59;5059721;28;45614;-79
2022/06/12 04:45:36;;;;;;;;;2.00;1.50;;;;;17.73;51.25;101692.81;5060001;28;45501;-79
2022/06/12 04:48:04;;;;;;;;;1.25;1.25;;;;;17.70;51.37;101687.78;5059660;28;45512;-78
2022/06/12 04:50:29;;;;;;;;;4.00;2.50;;;;;17.70;51.43;101688.63;5059317;28;47854;-79
2022/06/12 04:52:55;;;;;;;;;1.75;1.00;;;;;17.70;51.31;101690.44;5059219;28;46243;-79
2022/06/12 04:55:20;;;;;;;;;2.00;1.75;;;;;17.67;50.84;101685.38;5059439;28;45665;-77
2022/06/12 04:57:46;;;;;;;;;2.00;1.00;;;;;17.65;51.36;101688.19;5059563;28;45759;-78
2022/06/12 05:00:12;;;;;;;;;1.00;1.00;;;;;17.68;51.42;101687.91;5059198;28;46451;-78
2022/06/12 05:02:37;;;;;;;;;4.75;3.00;;;;;17.66;51.10;101689.00;5059315;28;46033;-79
2022/06/12 05:05:03;;;;;;;;;1.75;1.75;;;;;17.68;51.40;101690.56;5059341;28;45656;-77
2022/06/12 05:10:50;;;;;;;;;3.00;1.00;;;;;17.67;51.77;101686.22;5058772;28;45961;-77
2022/06/12 05:13:15;;;;;;;;;3.00;1.00;;;;;17.69;51.21;101691.41;5059070;28;45681;-78
2022/06/12 05:15:41;;;;;;;;;2.00;1.75;;;;;17.67;51.26;101686.22;5059051;28;45492;-78
2022/06/12 05:18:07;;;;;;;;;2.00;1.00;;;;;17.58;50.91;101669.25;5059289;28;45697;-78
2022/06/12 05:26:45;;;;;;;;;1.00;1.00;;;;;17.66;51.19;101681.03;5055444;27;45797;-77
2022/06/12 05:29:15;;;;;;;;;2.00;1.00;;;;;17.66;51.09;101683.69;5055351;28;45555;-77
2022/06/12 05:31:41;;;;;;;;;2.00;1.00;;;;;17.65;51.20;101676.72;5055464;28;45868;-78
2022/06/12 05:34:06;;;;;;;;;2.00;2.00;;;;;17.62;50.98;101664.56;5055529;28;46099;-77
2022/06/12 05:36:32;;;;;;;;;2.50;2.00;;;;;17.65;51.42;101677.56;5055626;28;45768;-77
2022/06/12 05:38:58;;;;;;;;;2.75;1.00;;;;;17.70;51.44;101690.44;5055791;28;45824;-77
2022/06/12 05:41:23;;;;;;;;;1.75;1.75;;;;;17.60;51.53;101677.94;5055207;28;45688;-77
2022/06/12 05:43:49;;;;;;;;;3.00;1.00;;;;;17.65;51.01;101696.13;5055325;28;45754;-78
2022/06/12 05:46:16;;;;;;;;;2.50;1.00;;;;;17.61;51.45;101692.03;5055586;28;45691;-77
2022/06/12 05:48:42;;;;;;;;;1.00;1.00;;;;;17.59;51.37;101681.59;5055441;28;45716;-77
2022/06/12 05:51:11;;;;;;;;;2.00;1.25;;;;;17.64;51.38;101690.94;5055235;28;46625;-77
2022/06/12 05:53:37;;;;;;;;;2.00;2.00;;;;;17.66;51.48;101692.50;5055123;28;45968;-77
2022/06/12 05:56:07;;;;;;;;;2.75;2.75;;;;;17.70;51.08;101701.03;5036947;28;46066;-78
2022/06/12 05:58:35;;;;;;;;;2.25;1.75;;;;;17.70;51.32;101701.88;5055421;28;45567;-77
2022/06/12 06:01:00;;;;;;;;;1.25;1.00;;;;;17.73;51.71;101698.13;5055096;28;45872;-78
2022/06/12 06:03:26;;;;;;;;;2.75;2.00;;;;;17.72;51.42;101701.72;5055051;28;45680;-78
2022/06/12 06:05:51;;;;;;;;;2.00;1.75;;;;;17.74;51.25;101697.16;5055002;28;45764;-78
2022/06/12 06:11:40;;;;;;;;;2.50;2.00;;;;;17.79;50.37;101698.47;5054798;28;45608;-79
2022/06/12 06:14:06;;;;;;;;;2.00;1.00;;;;;17.84;50.79;101711.31;5055026;28;46734;-77
2022/06/12 06:16:35;;;;;;;;;1.50;1.50;;;;;17.82;50.63;101710.59;5036631;28;45615;-78
2022/06/12 06:19:00;;;;;;;;;1.25;0.50;;;;;17.88;49.86;101718.03;5054959;28;45738;-78
2022/06/12 06:21:26;;;;;;;;;2.00;1.00;;;;;17.82;50.45;101700.84;5054685;28;45626;-79
2022/06/12 06:23:51;;;;;;;;;3.50;1.75;;;;;17.88;50.22;101710.09;5054243;28;46412;-77
2022/06/12 06:26:17;;;;;;;;;3.00;1.00;;;;;17.84;49.73;101701.56;5054751;28;45517;-78
2022/06/12 06:28:43;;;;;;;;;1.50;1.25;;;;;17.98;49.89;101718.94;5054144;28;45594;-79
2022/06/12 06:31:10;;;;;;;;;2.00;1.25;;;;;17.96;49.59;101713.78;5054499;28;45743;-77
2022/06/12 06:33:36;;;;;;;;;1.50;1.00;;;;;18.01;49.26;101716.06;5054649;28;45522;-77
2022/06/12 06:36:01;;;;;;;;;2.50;1.75;;;;;17.99;49.07;101708.22;5053552;28;46224;-77
2022/06/12 06:41:49;;;;;;;;;1.00;1.00;;;;;18.07;48.78;101726.16;5054072;28;45625;-77
2022/06/12 06:46:59;;;;;;;;;2.00;1.00;;;;;18.09;48.30;101716.22;5054256;28;45598;-76
2022/06/12 06:49:24;;;;;;;;;2.00;1.00;;;;;18.15;48.49;101718.34;5054171;28;45575;-79
2022/06/12 06:51:50;;;;;;;;;3.00;2.00;;;;;18.13;48.26;101709.72;5054150;28;46605;-79
2022/06/12 06:54:16;;;;;;;;;2.00;1.00;;;;;18.16;48.67;101712.09;5054276;28;46358;-78
2022/06/12 06:56:42;;;;;;;;;1.00;1.00;;;;;18.20;48.27;101723.25;5054289;28;45501;-78
2022/06/12 06:59:07;;;;;;;;;2.25;1.00;;;;;18.25;48.11;101719.25;5054269;28;45546;-77
2022/06/12 07:01:34;;;;;;;;;2.75;1.75;;;;;18.28;48.26;101720.81;5054166;28;46731;-76
2022/06/12 07:03:59;;;;;;;;;1.25;1.25;;;;;18.22;48.24;101700.97;5036462;28;46064;-77
2022/06/12 07:06:25;;;;;;;;;1.00;1.00;;;;;18.34;48.05;101722.94;5053821;28;45658;-77
2022/06/12 07:08:51;;;;;;;;;1.00;1.00;;;;;18.39;47.74;101723.38;5054070;28;45566;-78
2022/06/12 07:11:18;;;;;;;;;2.75;2.00;;;;;18.42;48.05;101723.13;5053721;28;46538;-77
2022/06/12 07:13:43;;;;;;;;;1.75;1.25;;;;;18.41;47.60;101722.28;5053540;28;45690;-78
2022/06/12 07:16:09;;;;;;;;;1.00;1.00;;;;;18.43;48.31;101720.34;5054128;28;45577;-79
2022/06/12 07:18:35;;;;;;;;;2.75;1.50;;;;;18.47;47.71;101723.56;5054094;28;45698;-78
2022/06/12 07:21:03;;;;;;;;;1.00;1.00;;;;;18.52;47.95;101723.16;5053635;28;46624;-77
2022/06/12 07:26:50;;;;;;;;;1.00;0.50;;;;;18.39;48.08;101692.38;5053413;28;45792;-77
2022/06/12 07:29:19;;;;;;;;;2.25;1.00;;;;;18.59;47.45;101724.34;5053760;28;45633;-78
2022/06/12 07:31:45;;;;;;;;;2.50;1.00;;;;;18.61;47.44;101723.25;5053628;28;46339;-78
2022/06/12 07:34:15;;;;;;;;;2.00;2.00;;;;;18.66;47.56;101734.31;5054256;28;45495;-79
2022/06/12 07:36:44;;;;;;;;;2.00;1.75;;;;;18.70;46.91;101729.56;5019534;28;45674;-78
2022/06/12 07:39:15;;;;;;;;;2.50;2.00;;;;;18.70;47.25;101726.91;5053741;28;45720;-78
2022/06/12 07:41:41;;;;;;;;;2.00;1.00;;;;;18.76;46.98;101739.66;5052135;28;47646;-77
2022/06/12 07:44:07;;;;;;;;;2.25;1.75;;;;;18.69;46.46;101722.56;5053683;28;45641;-78
2022/06/12 07:46:32;;;;;;;;;2.00;2.00;;;;;18.74;46.81;101729.16;5053558;28;45644;-78
2022/06/12 07:49:00;;;;;;;;;2.75;1.75;;;;;18.79;47.19;101734.06;5052926;28;45638;-78
2022/06/12 07:51:26;;;;;;;;;2.25;1.75;;;;;18.83;47.36;101732.84;5053827;28;46892;-78
2022/06/12 07:57:13;;;;;;;;;0.75;0.00;;;;;18.90;47.46;101739.25;5053371;28;45654;-78
2022/06/12 07:59:39;;;;;;;;;2.00;2.00;;;;;18.94;47.37;101742.50;5035678;28;45677;-76
2022/06/12 08:02:05;;;;;;;;;3.00;1.00;;;;;18.97;47.25;101736.91;5053390;28;46128;-79
2022/06/12 08:04:31;;;;;;;;;2.50;1.50;;;;;18.99;47.11;101732.31;5053333;28;45505;-76
2022/06/12 08:06:56;;;;;;;;;3.25;3.00;;;;;19.01;47.40;101736.50;5053064;28;45686;-79
2022/06/12 08:09:23;;;;;;;;;1.25;1.00;;;;;19.04;47.54;101728.28;5053086;28;45637;-78
2022/06/12 08:11:50;;;;;;;;;2.75;2.25;;;;;19.08;47.10;101740.31;5031090;28;47320;-77
2022/06/12 08:14:20;;;;;;;;;1.75;1.75;;;;;19.10;47.66;101725.09;5049305;28;45646;-78
2022/06/12 08:16:45;;;;;;;;;3.00;2.00;;;;;19.12;46.89;101725.75;5031290;28;45696;-79
2022/06/12 08:21:57;;;;;;;;;2.50;2.00;;;;;19.26;46.70;101724.56;5052522;28;45614;-78
2022/06/12 08:24:23;;;;;;;;;4.00;2.00;;;;;19.30;46.80;101728.59;5052982;28;46137;-77
2022/06/12 08:26:48;;;;;;;;;1.25;1.25;;;;;19.32;46.62;101725.81;5052857;28;45724;-78
2022/06/12 08:29:14;;;;;;;;;1.00;1.00;;;;;19.35;46.40;101722.88;5052978;28;45738;-80
2022/06/12 08:31:44;;;;;;;;;2.75;2.75;;;;;19.42;46.50;101724.00;5052869;28;46581;-79
2022/06/12 08:34:22;;;;;;;;;1.00;1.00;;;;;19.43;46.55;101720.38;5053145;28;45780;-78
2022/06/12 08:36:56;;;;;;;;;3.00;1.50;;;;;19.50;46.90;101713.53;5053621;28;45823;-77
2022/06/12 08:43:02;;;;;;;;;4.00;2.50;;;;;19.58;47.14;101711.03;5052996;28;45762;-79
2022/06/12 08:45:38;;;;;;;;;3.50;2.25;;;;;19.63;46.80;101708.78;5053156;28;46216;-78
2022/06/12 08:48:19;;;;;;;;;3.00;2.25;;;;;19.68;46.72;101704.72;5054751;28;45701;-79
2022/06/12 08:50:58;;;;;;;;;4.00;3.00;;;;;19.75;46.23;101698.84;5034680;28;45822;-78
2022/06/12 08:53:45;;;;;;;;;2.50;2.00;;;;;19.80;46.19;101697.44;5052366;28;45754;-78
2022/06/12 08:56:17;;;;;;;;;5.00;3.50;;;;;19.84;46.27;101704.16;5052637;28;45903;-79
2022/06/12 08:58:56;;;;;;;;;12.25;12.00;;;;;19.90;45.96;101697.41;5052992;28;45542;-78
2022/06/12 09:01:22;;;;;;;;;17.00;13.00;;;;;19.93;45.79;101689.97;5056143;28;45591;-78
2022/06/12 09:03:51;;;;;;;;;3.50;2.75;;;;;19.99;45.88;101688.56;5055843;28;46505;-78
2022/06/12 09:06:31;;;;;;;;;4.00;3.00;;;;;20.02;46.19;101689.16;5055900;28;45908;-78
2022/06/12 09:09:14;;;;;;;;;2.00;2.00;;;;;20.05;46.12;101688.00;5055431;28;45904;-77
2022/06/12 09:11:46;;;;;;;;;1.00;1.00;;;;;20.06;44.79;101679.03;5055987;28;45812;-77
2022/06/12 09:14:30;;;;;;;;;3.00;1.00;;;;;20.15;44.52;101685.31;5056432;28;46448;-79
2022/06/12 09:17:12;;;;;;;;;3.25;2.00;;;;;20.20;43.63;101683.03;5055790;28;46191;-78
2022/06/12 09:20:08;;;;;;;;;0.75;0.75;;;;;20.22;44.17;101671.28;5055899;28;45765;-77
2022/06/12 09:26:31;;;;;;;;;0.75;0.50;;;;;20.35;43.27;101694.97;5055630;28;46202;-78
2022/06/12 09:29:25;;;;;;;;;2.00;1.75;;;;;20.36;42.68;101689.47;4993133;28;46468;-76
2022/06/12 09:32:21;;;;;;;;;2.00;1.50;;;;;20.41;42.59;101689.03;4993011;28;45793;-79
2022/06/12 09:35:19;;;;;;;;;2.25;2.00;;;;;20.45;43.42;101701.09;4993396;28;45718;-79
2022/06/12 09:40:56;;;;;;;;;2.25;2.00;;;;;20.40;43.69;101682.88;4993004;28;45935;-76
2022/06/12 09:43:33;;;;;;;;;3.00;1.25;;;;;20.49;43.41;101695.31;5009176;28;46190;-78
2022/06/12 09:46:19;;;;;;;;;1.25;1.00;;;;;20.52;43.10;101694.16;4993387;28;45819;-79
2022/06/12 09:48:59;;;;;;;;;3.00;2.00;;;;;20.53;43.60;101682.53;4993019;28;45760;-78
2022/06/12 09:51:50;;;;;;;;;2.25;2.00;;;;;20.62;43.47;101688.81;4992672;28;47249;-79
2022/06/12 09:54:21;;;;;;;;;3.25;2.00;;;;;20.67;43.53;101695.38;5009377;28;45779;-79
2022/06/12 09:56:57;;;;;;;;;4.50;4.00;;;;;20.71;43.93;101688.78;4993451;28;45710;-78
2022/06/12 09:59:43;;;;;;;;;1.00;0.75;;;;;20.79;43.86;101688.84;4992668;28;47696;-78
2022/06/12 10:02:37;;;;;;;;;2.75;2.75;;;;;20.87;43.54;101686.28;4992799;28;46756;-78
2022/06/12 10:05:13;;;;;;;;;4.25;2.00;;;;;20.92;43.56;101683.19;5000730;28;46036;-78
2022/06/12 10:11:10;;;;;;;;;1.25;1.25;;;;;21.04;43.13;101692.66;4991626;28;45866;-78
2022/06/12 10:13:41;;;;;;;;;2.75;1.25;;;;;21.08;42.88;101688.69;4992644;28;46002;-77
2022/06/12 10:16:18;;;;;;;;;1.00;0.75;;;;;21.08;42.37;101685.16;4992742;28;45667;-78
2022/06/12 10:18:55;;;;;;;;;1.25;1.00;;;;;21.17;42.32;101692.28;4992737;28;45580;-77
2022/06/12 10:21:25;;;;;;;;;1.75;1.75;;;;;21.19;42.31;101685.84;4992427;28;46368;-79
2022/06/12 10:23:51;;;;;;;;;1.50;1.00;;;;;21.13;41.97;101674.91;4992404;28;46426;-78
2022/06/12 10:26:27;;;;;;;;;1.50;1.50;;;;;21.26;42.67;101680.75;4992370;28;45679;-78
2022/06/12 10:29:24;;;;;;;;;1.50;1.00;;;;;21.31;42.21;101683.78;5011531;28;45962;-78
2022/06/12 10:31:59;;;;;;;;;2.50;2.25;;;;;21.25;42.19;101663.91;5011579;28;47786;-79
2022/06/12 10:34:28;;;;;;;;;1.50;1.50;;;;;21.35;42.78;101667.31;5011941;28;47349;-79
2022/06/12 10:36:55;;;;;;;;;2.00;2.00;;;;;21.38;43.44;101671.50;5012303;28;45765;-79
2022/06/12 10:39:24;;;;;;;;;3.25;2.25;;;;;21.42;43.18;101675.56;5012354;28;45718;-79
2022/06/12 10:42:01;;;;;;;;;2.50;2.00;;;;;21.45;42.41;101674.41;5012174;28;46003;-79
2022/06/12 10:44:42;;;;;;;;;2.50;2.00;;;;;21.46;42.73;101668.06;5012119;28;45747;-79
2022/06/12 10:47:14;;;;;;;;;3.25;2.75;;;;;21.48;43.40;101664.28;5019825;28;45719;-78
2022/06/12 10:49:40;;;;;;;;;3.75;2.50;;;;;21.45;42.96;101650.41;5034208;28;45680;-78
2022/06/12 10:52:20;;;;;;;;;4.75;4.00;;;;;21.47;43.19;101643.09;5034005;28;45650;-79
2022/06/12 10:54:47;;;;;;;;;3.25;1.25;;;;;21.53;42.02;101651.31;5025830;28;45803;-78
2022/06/12 10:57:30;;;;;;;;;4.25;3.25;;;;;21.56;42.74;101644.81;5034309;28;45658;-77
2022/06/12 11:00:12;;;;;;;;;2.75;2.75;;;;;21.55;42.64;101659.13;5034188;28;45683;-79
2022/06/12 11:03:01;;;;;;;;;3.00;2.25;;;;;21.61;42.41;101643.38;5015365;28;46665;-79
2022/06/12 11:05:42;;;;;;;;;2.50;2.25;;;;;21.63;42.49;101649.41;5034054;28;45925;-78
2022/06/12 11:11:37;;;;;;;;;3.00;3.00;;;;;21.63;42.09;101627.22;5035491;28;45508;-78
2022/06/12 11:14:50;;;;;;;;;3.50;3.00;;;;;21.64;41.77;101637.75;5051027;28;48308;-77
2022/06/12 11:17:45;;;;;;;;;3.00;3.00;;;;;21.66;42.25;101622.41;5032670;28;45880;-79
2022/06/12 11:20:25;;;;;;;;;2.00;2.00;;;;;21.74;41.04;101630.47;5033676;28;45736;-78
2022/06/12 11:23:09;;;;;;;;;2.25;2.25;;;;;21.78;40.28;101631.81;5032202;28;45747;-79
2022/06/12 11:29:17;;;;;;;;;4.75;2.00;;;;;21.88;40.78;101610.38;5038456;28;45805;-78
2022/06/12 11:32:24;;;;;;;;;3.00;2.00;;;;;21.95;39.74;101608.78;5033532;28;45631;-79
2022/06/12 11:35:11;;;;;;;;;3.50;1.75;;;;;22.01;38.88;101620.66;4970786;28;45788;-78
2022/06/12 11:38:01;;;;;;;;;3.50;3.00;;;;;22.04;38.50;101601.63;4971831;28;45669;-79
2022/06/12 11:44:19;;;;;;;;;1.75;1.25;;;;;22.07;37.69;101594.16;4971245;28;45987;-77
2022/06/12 11:46:53;;;;;;;;;3.25;1.50;;;;;22.09;37.78;101592.16;4971261;28;45601;-78
2022/06/12 11:49:35;;;;;;;;;3.00;2.00;;;;;22.08;37.23;101589.63;4971445;28;46637;-80
2022/06/12 11:52:33;;;;;;;;;3.00;3.00;;;;;22.15;37.68;101588.84;4971509;28;45865;-79
2022/06/12 11:55:01;;;;;;;;;4.00;4.00;;;;;22.19;38.14;101581.34;4971288;28;45490;-77
2022/06/12 11:57:33;;;;;;;;;3.00;2.50;;;;;22.22;38.05;101580.22;4971793;28;45797;-79
2022/06/12 12:00:14;;;;;;;;;2.00;2.00;;;;;22.21;37.31;101566.03;4954887;28;46623;-79
2022/06/12 12:02:59;;;;;;;;;2.00;2.00;;;;;22.28;37.10;101576.91;4971273;28;45898;-79
2022/06/12 12:05:46;;;;;;;;;2.50;2.00;;;;;22.27;37.05;101570.72;4971600;28;45861;-78
2022/06/12 12:08:26;;;;;;;;;2.50;2.50;;;;;22.26;36.48;101577.03;4971924;28;45692;-79
2022/06/12 12:11:10;;;;;;;;;1.50;1.25;;;;;22.27;36.38;101565.38;4994217;28;48484;-79
2022/06/12 12:13:43;;;;;;;;;2.00;2.00;;;;;22.31;36.17;101568.56;5032937;28;46000;-77
2022/06/12 12:16:24;;;;;;;;;3.25;3.00;;;;;22.34;36.67;101565.56;5033201;28;45719;-79
2022/06/12 12:18:59;;;;;;;;;2.00;2.00;;;;;22.37;36.48;101560.72;5032921;28;45844;-79
2022/06/12 12:22:01;;;;;;;;;2.00;2.00;;;;;22.42;36.81;101561.06;5033019;28;46465;-78
2022/06/12 12:27:52;;;;;;;;;1.75;1.75;;;;;22.53;37.12;101549.25;5032330;28;45504;-78
2022/06/12 12:30:31;;;;;;;;;2.25;2.25;;;;;22.55;36.87;101540.09;5032780;28;45626;-78
2022/06/12 12:33:00;;;;;;;;;4.00;2.50;;;;;22.58;36.98;101541.59;5032655;28;46539;-79
2022/06/12 12:44:38;;;;;;;;;2.75;2.75;;;;;22.79;36.84;101531.28;5036032;28;45775;-78
2022/06/12 12:47:26;;;;;;;;;2.00;2.00;;;;;22.88;37.27;101542.84;5036285;28;46318;-77
2022/06/12 12:50:12;;;;;;;;;2.00;2.00;;;;;22.87;36.31;101528.63;5036537;28;46204;-77
2022/06/12 12:52:48;;;;;;;;;3.75;2.50;;;;;22.87;36.90;101533.97;5018482;28;45908;-77
2022/06/12 12:55:24;;;;;;;;;2.00;2.00;;;;;22.94;36.14;101526.13;5036327;28;45673;-77
2022/06/12 12:57:50;;;;;;;;;2.00;1.00;;;;;22.93;36.34;101517.28;5036298;28;46415;-79
2022/06/12 13:00:16;;;;;;;;;3.75;3.00;;;;;22.98;36.00;101530.97;5035904;28;45589;-79
2022/06/12 13:03:10;;;;;;;;;2.75;2.00;;;;;23.02;36.31;101523.44;5035696;28;45508;-78
2022/06/12 13:05:47;;;;;;;;;3.25;3.00;;;;;23.07;35.98;101518.44;5035489;28;46453;-79
2022/06/12 13:08:41;;;;;;;;;2.00;2.00;;;;;23.11;36.35;101529.63;5036010;28;46473;-78
2022/06/12 13:11:21;;;;;;;;;3.25;2.25;;;;;23.13;35.95;101520.44;5036097;28;45772;-79
2022/06/12 13:14:02;;;;;;;;;2.00;2.00;;;;;23.17;35.96;101527.13;5035765;28;45783;-79
2022/06/12 13:16:55;;;;;;;;;2.00;2.00;;;;;23.18;36.17;101517.25;5035895;28;46465;-79
2022/06/12 13:19:23;;;;;;;;;2.50;2.50;;;;;23.22;36.28;101527.44;5035880;28;45939;-80
2022/06/12 13:22:03;;;;;;;;;2.00;2.00;;;;;23.26;36.20;101520.78;5017564;28;46038;-79
2022/06/12 13:27:54;;;;;;;;;2.50;2.00;;;;;23.33;37.02;101505.69;5039163;27;46117;-79
2022/06/12 13:30:33;;;;;;;;;4.00;3.00;;;;;23.38;36.93;101519.41;5055703;28;45690;-78
2022/06/12 13:33:20;;;;;;;;;2.00;2.00;;;;;23.39;36.97;101506.84;5055445;28;45736;-78
2022/06/12 13:35:52;;;;;;;;;2.00;2.00;;;;;23.42;36.09;101512.72;5055916;28;45717;-78
2022/06/12 13:38:21;;;;;;;;;2.00;2.00;;;;;23.42;36.12;101502.03;5055149;28;45780;-79